INFORMACIÓN METAR y TAF
METAR FOR LXGB
ADDS - METARS form results

(0507 UTC 19 December 2018)
Data provider http://aviationweather.gov/metar/data/
 
METAR text: LXGB 190450Z AUTO 27004KT 9999 // BKN031/// 15/13 Q1023
Conditions at: LXGB (GIBRALTAR (CIV/M, GI) observed 0450 UTC 19 December 2018
Temperature: 15.0°C (59°F)
Dewpoint: 13.0°C (55°F) [RH = 88%]
Pressure (altimeter): 30.21 inches Hg (1023.0 mb)
Winds: from the W (270 degrees) at 5 MPH (4 knots; 2.1 m/s)
Visibility: 6 or more miles (10+ km)
Ceiling: 3100 feet AGL
Clouds: broken clouds at 3100 feet AGL
Weather: no significant weather observed at this time

 MAPA DE AEROPUERTO

 INFORMACIÓN DE PISTA
Pista 09 Longitud 6000 ft Ancho 150 ft
Elevación 10 ft Umbral desplazado 302 ft Rumbo de pista 88
Pista 27 Longitud 6000 ft Ancho 150 ft
Elevación 11 ft Umbral desplazado 368 ft Rumbo de pista 268

 FRECUANCIAS DEL AEROPUERTO
Tipo A/D Nombre APP Frecuencia 122.8 MHZ
Tipo OPS Nombre GIB TALKDO Frecuencia 130.4 MHZ
Tipo TWR Nombre TWR Frecuencia 131.2 MHZ

 RADIO AYUDAS DEL AEROPUERTO
Tipo TACAN Nombre Gibraltar Frecuencia 113600 KHZ



Powered by Virtual Airlines Manager [v2.6.2]